Time;durP1;ratioP1;P1;durP2;ratioP2;P2;SDS_P1;SDS_P2;PMS_P1;PMS_P2;Temp;Humidity;BMP_temperature;BMP_pressure;BME280_temperature;BME280_humidity;BME280_pressure;Samples;Min_cycle;Max_cycle;Signal;HPM_P1;HPM_P2
2023/07/31 00:00:51;;;;;;;4.93;2.80;;;16.00;99.90;;;;;;482709;246;28858;-81
2023/07/31 00:02:52;;;;;;;6.83;2.37;;;16.10;99.90;;;;;;482903;246;28844;-79
2023/07/31 00:04:53;;;;;;;2.97;2.50;;;16.10;99.90;;;;;;482916;246;28836;-83
2023/07/31 00:06:55;;;;;;;4.40;2.80;;;16.10;99.90;;;;;;482846;246;28913;-80
2023/07/31 00:08:56;;;;;;;5.07;2.87;;;16.00;99.90;;;;;;482901;246;28813;-79
2023/07/31 00:10:57;;;;;;;7.00;2.50;;;16.00;99.90;;;;;;482787;246;28795;-82
2023/07/31 00:12:58;;;;;;;3.93;2.50;;;16.00;99.90;;;;;;482798;246;28852;-80
2023/07/31 00:15:00;;;;;;;5.73;2.60;;;16.00;99.90;;;;;;482823;246;29279;-81
2023/07/31 00:17:01;;;;;;;5.40;2.30;;;16.00;99.90;;;;;;482793;244;29304;-81
2023/07/31 00:19:02;;;;;;;10.13;3.43;;;16.00;99.90;;;;;;482783;246;29449;-78
2023/07/31 00:21:03;;;;;;;3.23;2.60;;;16.00;99.90;;;;;;482867;246;28789;-83
2023/07/31 00:23:05;;;;;;;4.83;2.57;;;15.90;99.90;;;;;;482894;246;28841;-81
2023/07/31 00:25:06;;;;;;;2.97;2.40;;;15.90;99.90;;;;;;482829;246;28791;-82
2023/07/31 00:27:07;;;;;;;3.43;2.60;;;16.00;99.90;;;;;;482751;246;28873;-81
2023/07/31 00:29:08;;;;;;;4.80;2.70;;;15.90;99.90;;;;;;482833;246;28921;-81
2023/07/31 00:31:10;;;;;;;9.23;2.63;;;15.90;99.90;;;;;;482804;246;28878;-81
2023/07/31 00:33:11;;;;;;;6.97;2.43;;;15.90;99.90;;;;;;482847;246;28829;-81
2023/07/31 00:35:12;;;;;;;3.77;2.60;;;15.90;99.90;;;;;;482840;246;28906;-81
2023/07/31 00:37:15;;;;;;;9.00;3.00;;;15.90;99.90;;;;;;482789;246;28829;-80
2023/07/31 00:39:15;;;;;;;7.33;3.10;;;15.90;99.90;;;;;;482761;246;29322;-79
2023/07/31 00:41:16;;;;;;;4.50;2.53;;;15.90;99.90;;;;;;482777;246;29256;-82
2023/07/31 00:43:17;;;;;;;11.67;3.57;;;15.90;99.90;;;;;;482755;246;29312;-80
2023/07/31 00:45:18;;;;;;;4.90;2.50;;;15.90;99.90;;;;;;482770;246;28824;-81
2023/07/31 00:47:20;;;;;;;6.00;2.67;;;15.80;99.90;;;;;;482805;246;28798;-80
2023/07/31 00:49:21;;;;;;;5.13;2.30;;;15.80;99.90;;;;;;483911;240;29001;-79
2023/07/31 00:51:22;;;;;;;4.53;3.00;;;15.80;99.90;;;;;;486820;243;28804;-79
2023/07/31 00:53:24;;;;;;;4.70;2.67;;;15.80;99.90;;;;;;486774;243;28842;-80
2023/07/31 00:55:25;;;;;;;6.10;2.80;;;15.80;99.90;;;;;;486770;243;28930;-80
2023/07/31 00:57:26;;;;;;;8.13;2.77;;;15.70;99.90;;;;;;486808;244;28911;-82
2023/07/31 00:59:27;;;;;;;4.23;2.53;;;15.70;99.90;;;;;;486812;244;28850;-79
2023/07/31 01:01:28;;;;;;;4.77;2.77;;;15.60;99.90;;;;;;486841;243;28812;-80
2023/07/31 01:03:30;;;;;;;4.87;2.20;;;15.70;99.90;;;;;;486776;243;29346;-80
2023/07/31 01:05:31;;;;;;;6.00;2.97;;;15.60;99.90;;;;;;486797;244;29432;-78
2023/07/31 01:07:32;;;;;;;6.73;2.90;;;15.60;99.90;;;;;;486890;243;29262;-79
2023/07/31 01:09:33;;;;;;;3.90;2.30;;;15.60;99.90;;;;;;486865;243;28859;-78
2023/07/31 01:11:35;;;;;;;3.40;2.47;;;15.60;99.90;;;;;;486852;243;28801;-80
2023/07/31 01:13:36;;;;;;;5.03;2.90;;;15.60;99.90;;;;;;486815;243;28855;-78
2023/07/31 01:15:38;;;;;;;4.73;2.27;;;15.60;99.90;;;;;;486854;243;28940;-78
2023/07/31 01:17:38;;;;;;;7.30;2.87;;;15.60;99.90;;;;;;486764;243;28800;-80
2023/07/31 01:19:40;;;;;;;5.63;2.87;;;15.60;99.90;;;;;;486765;243;28982;-80
2023/07/31 01:21:42;;;;;;;5.60;2.83;;;15.60;99.90;;;;;;486804;243;28820;-83
2023/07/31 01:23:42;;;;;;;6.83;2.60;;;15.50;99.90;;;;;;486734;243;28923;-79
2023/07/31 01:25:44;;;;;;;5.03;2.93;;;15.60;99.90;;;;;;486775;243;28913;-82
2023/07/31 01:27:45;;;;;;;2.83;2.47;;;15.60;99.90;;;;;;486748;243;29289;-82
2023/07/31 01:29:46;;;;;;;4.40;2.70;;;15.60;99.90;;;;;;486758;244;29445;-77
2023/07/31 01:31:47;;;;;;;5.87;2.57;;;15.60;99.90;;;;;;486771;243;29372;-79
2023/07/31 01:33:49;;;;;;;4.80;2.63;;;15.50;99.90;;;;;;486774;243;29272;-79
2023/07/31 01:35:50;;;;;;;4.37;2.60;;;15.50;99.90;;;;;;486787;243;28986;-79
2023/07/31 01:37:51;;;;;;;8.80;3.80;;;15.50;99.90;;;;;;486762;243;28878;-80
2023/07/31 01:39:52;;;;;;;3.60;2.30;;;15.50;99.90;;;;;;486798;242;28893;-78
2023/07/31 01:41:54;;;;;;;7.50;2.87;;;15.50;99.90;;;;;;486701;243;28808;-82
2023/07/31 01:43:55;;;;;;;4.80;2.53;;;15.50;99.90;;;;;;486899;243;28830;-80
2023/07/31 01:45:56;;;;;;;6.70;3.47;;;15.40;99.90;;;;;;486914;243;28846;-77
2023/07/31 01:47:57;;;;;;;7.17;2.60;;;15.50;99.90;;;;;;486845;243;29259;-80
2023/07/31 01:49:59;;;;;;;8.67;3.30;;;15.50;99.90;;;;;;486812;244;28855;-80
2023/07/31 01:52:00;;;;;;;3.93;2.60;;;15.50;99.90;;;;;;486888;243;28839;-83
2023/07/31 01:54:01;;;;;;;3.50;2.37;;;15.50;99.90;;;;;;486841;243;28888;-81
2023/07/31 01:56:02;;;;;;;3.50;2.33;;;15.50;99.90;;;;;;486785;243;28927;-80
2023/07/31 01:58:04;;;;;;;7.53;2.67;;;15.50;99.90;;;;;;486793;243;28912;-81
2023/07/31 02:00:05;;;;;;;8.40;2.53;;;15.50;99.90;;;;;;486804;243;28857;-79
2023/07/31 02:02:06;;;;;;;9.03;2.63;;;15.50;99.90;;;;;;486834;243;28805;-81
2023/07/31 02:04:07;;;;;;;4.43;2.90;;;15.40;99.90;;;;;;486805;243;28834;-79
2023/07/31 02:06:09;;;;;;;7.40;2.80;;;15.40;99.90;;;;;;486817;243;28937;-80
2023/07/31 02:08:10;;;;;;;4.93;2.60;;;15.40;99.90;;;;;;486806;243;29338;-80
2023/07/31 02:10:11;;;;;;;3.37;2.07;;;15.40;99.90;;;;;;486771;243;29394;-81
2023/07/31 02:12:14;;;;;;;3.97;2.60;;;15.50;99.90;;;;;;486793;243;30066;-80
2023/07/31 02:14:14;;;;;;;5.70;2.67;;;15.50;99.90;;;;;;486743;244;29384;-79
2023/07/31 02:16:15;;;;;;;7.63;3.17;;;15.50;99.90;;;;;;486807;242;28909;-79
2023/07/31 02:18:16;;;;;;;4.73;2.60;;;15.40;99.90;;;;;;486788;243;28937;-82
2023/07/31 02:20:17;;;;;;;4.50;2.80;;;15.50;99.90;;;;;;486768;243;28988;-81
2023/07/31 02:22:19;;;;;;;8.93;3.60;;;15.50;99.90;;;;;;486902;243;28835;-81
2023/07/31 02:24:20;;;;;;;5.60;2.57;;;15.40;99.90;;;;;;486802;243;28845;-80
2023/07/31 02:26:21;;;;;;;6.10;3.20;;;15.40;99.90;;;;;;486745;243;28843;-80
2023/07/31 02:28:22;;;;;;;5.40;2.80;;;15.40;99.90;;;;;;486842;243;28825;-78
2023/07/31 02:30:24;;;;;;;5.83;3.00;;;15.40;99.90;;;;;;486813;243;28923;-79
2023/07/31 02:32:25;;;;;;;6.43;3.00;;;15.30;99.90;;;;;;486810;243;28844;-79
2023/07/31 02:34:26;;;;;;;4.53;2.83;;;15.30;99.90;;;;;;486800;243;29367;-82
2023/07/31 02:36:27;;;;;;;9.40;3.10;;;15.20;99.90;;;;;;486764;243;29398;-78
2023/07/31 02:38:29;;;;;;;6.23;2.90;;;15.20;99.90;;;;;;486815;243;29268;-80
2023/07/31 02:40:30;;;;;;;4.47;2.80;;;15.30;99.90;;;;;;486735;244;28931;-80
2023/07/31 02:42:31;;;;;;;7.37;2.90;;;15.20;99.90;;;;;;486808;243;28833;-80
2023/07/31 02:44:32;;;;;;;3.90;2.90;;;15.20;99.90;;;;;;486856;243;28807;-79
2023/07/31 02:46:34;;;;;;;4.40;2.60;;;15.30;99.90;;;;;;486894;243;28845;-78
2023/07/31 02:48:35;;;;;;;5.50;2.60;;;15.20;99.90;;;;;;486860;243;28924;-79
2023/07/31 02:50:36;;;;;;;2.43;2.23;;;15.30;99.90;;;;;;486806;243;28886;-80
2023/07/31 02:52:37;;;;;;;4.67;3.00;;;15.30;99.90;;;;;;486843;243;29222;-78
2023/07/31 02:54:39;;;;;;;5.63;3.07;;;15.30;99.90;;;;;;486818;243;28808;-79
2023/07/31 02:56:40;;;;;;;8.13;3.10;;;15.20;99.90;;;;;;486831;243;28883;-78
2023/07/31 02:58:41;;;;;;;6.80;2.90;;;15.20;99.90;;;;;;486788;243;29264;-82
2023/07/31 03:00:42;;;;;;;4.33;2.97;;;15.20;99.90;;;;;;486836;243;29353;-79
2023/07/31 03:02:44;;;;;;;5.00;2.80;;;15.20;99.90;;;;;;486880;243;29361;-77
2023/07/31 03:04:45;;;;;;;3.80;2.63;;;15.20;99.90;;;;;;486857;243;28926;-81
2023/07/31 03:06:46;;;;;;;4.33;2.57;;;15.20;99.90;;;;;;486832;243;28934;-81
2023/07/31 03:08:47;;;;;;;5.53;3.00;;;15.20;99.90;;;;;;486830;243;28805;-80
2023/07/31 03:10:49;;;;;;;4.47;2.67;;;15.20;99.90;;;;;;486733;244;28842;-79
2023/07/31 03:12:50;;;;;;;4.30;2.37;;;15.20;99.90;;;;;;486762;243;28955;-80
2023/07/31 03:14:51;;;;;;;8.73;3.27;;;15.20;99.90;;;;;;486847;243;28900;-80
2023/07/31 03:16:52;;;;;;;4.73;3.00;;;15.20;99.90;;;;;;486747;243;28965;-79
2023/07/31 03:18:54;;;;;;;11.73;3.43;;;15.20;99.90;;;;;;486763;243;28942;-81
2023/07/31 03:20:55;;;;;;;4.20;2.80;;;15.20;99.90;;;;;;486831;243;28860;-80
2023/07/31 03:22:56;;;;;;;8.90;3.40;;;15.30;99.90;;;;;;486749;243;29337;-79
2023/07/31 03:24:57;;;;;;;6.17;3.10;;;15.20;99.90;;;;;;486750;243;29344;-79
2023/07/31 03:26:59;;;;;;;3.60;2.50;;;15.20;99.90;;;;;;486757;243;29333;-80
2023/07/31 03:29:00;;;;;;;7.07;3.20;;;15.20;99.90;;;;;;486742;243;28922;-80
2023/07/31 03:31:01;;;;;;;4.70;2.77;;;15.20;99.90;;;;;;486756;243;28839;-80
2023/07/31 03:33:02;;;;;;;7.27;3.00;;;15.30;99.90;;;;;;486692;243;28931;-79
2023/07/31 03:35:05;;;;;;;3.00;2.40;;;15.30;99.90;;;;;;486615;244;28892;-81
2023/07/31 03:37:05;;;;;;;3.33;3.03;;;15.30;99.90;;;;;;486685;244;28832;-79
2023/07/31 03:39:06;;;;;;;3.60;2.73;;;15.30;99.90;;;;;;486720;243;28899;-81
2023/07/31 03:41:07;;;;;;;7.00;3.20;;;15.20;99.90;;;;;;486655;244;28883;-80
2023/07/31 03:43:09;;;;;;;4.40;2.67;;;15.20;99.90;;;;;;486774;244;28928;-81
2023/07/31 03:45:10;;;;;;;4.00;2.37;;;15.20;99.90;;;;;;486779;244;28921;-79
2023/07/31 03:47:11;;;;;;;7.13;3.20;;;15.20;99.90;;;;;;486861;243;29456;-80
2023/07/31 03:49:12;;;;;;;2.57;2.33;;;15.20;99.90;;;;;;486731;243;30154;-81
2023/07/31 03:51:14;;;;;;;7.20;3.10;;;15.20;99.90;;;;;;486778;243;29268;-80
2023/07/31 03:53:15;;;;;;;4.63;2.77;;;15.20;99.90;;;;;;486765;243;29327;-80
2023/07/31 03:55:16;;;;;;;6.33;2.77;;;15.20;99.90;;;;;;486830;243;28808;-79
2023/07/31 03:57:17;;;;;;;4.93;2.80;;;15.20;99.90;;;;;;486824;243;28940;-78
2023/07/31 03:59:19;;;;;;;6.73;3.23;;;15.10;99.90;;;;;;486736;244;28855;-81
2023/07/31 04:01:20;;;;;;;9.97;3.13;;;15.10;99.90;;;;;;486834;243;28913;-78
2023/07/31 04:03:21;;;;;;;5.40;2.83;;;15.10;99.90;;;;;;486873;243;28861;-79
2023/07/31 04:05:22;;;;;;;5.77;3.10;;;15.10;99.90;;;;;;486742;244;28898;-79
2023/07/31 04:07:24;;;;;;;5.40;2.83;;;15.10;99.90;;;;;;486771;243;28851;-79
2023/07/31 04:09:25;;;;;;;3.93;3.00;;;15.10;99.90;;;;;;486808;243;28827;-80
2023/07/31 04:11:26;;;;;;;5.77;2.80;;;15.10;99.90;;;;;;486768;243;28808;-80
2023/07/31 04:13:28;;;;;;;5.67;2.73;;;15.10;99.90;;;;;;486777;243;29315;-79
2023/07/31 04:15:29;;;;;;;8.33;3.77;;;15.10;99.90;;;;;;486762;244;29343;-79
2023/07/31 04:17:30;;;;;;;7.20;3.33;;;15.10;99.90;;;;;;486840;243;29406;-79
2023/07/31 04:19:31;;;;;;;4.73;2.87;;;15.10;99.90;;;;;;486818;244;28921;-78
2023/07/31 04:21:32;;;;;;;6.30;2.87;;;15.10;99.90;;;;;;486796;243;28798;-79
2023/07/31 04:23:34;;;;;;;4.77;2.60;;;15.10;99.90;;;;;;486855;243;28872;-78
2023/07/31 04:25:35;;;;;;;4.20;2.93;;;15.10;99.90;;;;;;486804;243;28927;-79
2023/07/31 04:27:36;;;;;;;5.33;3.07;;;15.10;99.90;;;;;;486820;243;28830;-79
2023/07/31 04:29:39;;;;;;;5.97;3.30;;;15.10;99.90;;;;;;486881;244;29193;-78
2023/07/31 04:31:39;;;;;;;4.10;3.10;;;15.10;99.90;;;;;;486733;244;28884;-79
2023/07/31 04:33:40;;;;;;;12.60;3.33;;;15.10;99.90;;;;;;486830;243;28951;-80
2023/07/31 04:35:41;;;;;;;9.00;2.77;;;15.00;99.90;;;;;;486778;243;29238;-81
2023/07/31 04:37:44;;;;;;;4.67;3.00;;;15.00;99.90;;;;;;486766;244;29305;-82
2023/07/31 04:39:44;;;;;;;7.77;3.13;;;15.10;99.90;;;;;;486782;244;29339;-78
2023/07/31 04:41:45;;;;;;;5.20;3.40;;;15.00;99.90;;;;;;486746;243;29261;-79
2023/07/31 04:43:46;;;;;;;4.93;3.00;;;15.00;99.90;;;;;;486839;243;28840;-78
2023/07/31 04:45:48;;;;;;;6.87;2.80;;;15.10;99.90;;;;;;486618;244;28900;-80
2023/07/31 04:47:49;;;;;;;4.87;2.93;;;15.20;99.90;;;;;;486723;243;28922;-81
2023/07/31 04:49:50;;;;;;;4.97;2.83;;;15.10;99.90;;;;;;486778;243;28947;-79
2023/07/31 04:51:51;;;;;;;5.90;2.90;;;15.20;99.90;;;;;;486751;243;28803;-81
2023/07/31 04:53:53;;;;;;;7.90;3.23;;;15.10;99.90;;;;;;486731;243;28937;-79
2023/07/31 04:55:54;;;;;;;5.97;3.00;;;15.10;99.90;;;;;;486731;243;28830;-81
2023/07/31 04:57:55;;;;;;;9.03;3.50;;;15.20;99.90;;;;;;486811;243;28831;-80
2023/07/31 04:59:56;;;;;;;7.60;3.30;;;15.20;99.90;;;;;;486759;243;28855;-78
2023/07/31 05:01:58;;;;;;;5.47;3.00;;;15.20;99.90;;;;;;486860;243;29290;-82
2023/07/31 05:03:59;;;;;;;4.43;2.67;;;15.30;99.90;;;;;;486735;243;29403;-80
2023/07/31 05:06:00;;;;;;;4.97;2.87;;;15.30;99.90;;;;;;486723;243;29349;-82
2023/07/31 05:08:01;;;;;;;6.30;3.17;;;15.40;99.90;;;;;;486704;243;28824;-81
2023/07/31 05:10:03;;;;;;;6.80;3.03;;;15.40;99.90;;;;;;486683;244;28859;-81
2023/07/31 05:12:04;;;;;;;4.60;2.87;;;15.40;99.90;;;;;;486693;243;28811;-81
2023/07/31 05:14:05;;;;;;;5.30;2.83;;;15.30;99.90;;;;;;486740;243;28838;-79
2023/07/31 05:16:06;;;;;;;4.10;2.83;;;15.40;99.90;;;;;;486746;243;28880;-81
2023/07/31 05:18:08;;;;;;;5.63;3.10;;;15.40;99.90;;;;;;486790;243;28803;-79
2023/07/31 05:20:09;;;;;;;6.20;3.40;;;15.40;99.90;;;;;;486859;243;28864;-77
2023/07/31 05:22:10;;;;;;;5.30;2.90;;;15.50;99.90;;;;;;486813;243;28955;-80
2023/07/31 05:24:11;;;;;;;8.17;2.80;;;15.50;99.90;;;;;;486735;243;28882;-80
2023/07/31 05:26:13;;;;;;;6.10;3.17;;;15.60;99.90;;;;;;486646;244;30211;-81
2023/07/31 05:28:14;;;;;;;5.40;3.03;;;15.60;99.90;;;;;;486761;243;29272;-80
2023/07/31 05:30:15;;;;;;;7.83;3.33;;;15.60;99.90;;;;;;486715;244;29401;-80
2023/07/31 05:32:16;;;;;;;7.07;3.03;;;15.70;99.90;;;;;;486639;244;29288;-80
2023/07/31 05:34:18;;;;;;;4.80;3.07;;;15.70;99.90;;;;;;486743;243;28940;-79
2023/07/31 05:36:19;;;;;;;4.80;2.60;;;15.80;99.90;;;;;;486823;243;28817;-79
2023/07/31 05:38:20;;;;;;;9.80;2.90;;;15.80;99.90;;;;;;486823;243;28832;-78
2023/07/31 05:40:21;;;;;;;4.20;3.10;;;15.90;99.90;;;;;;486847;243;28896;-82
2023/07/31 05:42:23;;;;;;;9.83;3.80;;;15.80;99.90;;;;;;486836;243;28805;-80
2023/07/31 05:44:24;;;;;;;6.30;2.60;;;15.90;99.90;;;;;;486826;243;28872;-81
2023/07/31 05:46:25;;;;;;;6.57;2.70;;;16.00;99.90;;;;;;486792;243;28825;-81
2023/07/31 05:48:26;;;;;;;8.70;3.50;;;15.90;99.90;;;;;;486815;243;28846;-80
2023/07/31 05:50:28;;;;;;;8.73;2.73;;;16.00;99.90;;;;;;486826;243;28895;-80
2023/07/31 05:52:29;;;;;;;9.87;3.13;;;16.00;99.90;;;;;;486787;243;29332;-80
2023/07/31 05:54:30;;;;;;;5.23;3.10;;;16.00;99.90;;;;;;486776;243;29311;-81
2023/07/31 05:56:33;;;;;;;4.17;3.13;;;16.00;99.90;;;;;;486870;243;29493;-80
2023/07/31 05:58:33;;;;;;;5.73;3.07;;;16.00;99.90;;;;;;486741;244;28887;-78
2023/07/31 06:00:34;;;;;;;5.83;3.33;;;16.10;99.90;;;;;;486820;243;28854;-81
2023/07/31 06:02:36;;;;;;;6.70;2.70;;;16.10;99.90;;;;;;486852;243;28904;-81
2023/07/31 06:04:36;;;;;;;8.43;3.43;;;16.10;99.90;;;;;;486752;243;28841;-81
2023/07/31 06:06:38;;;;;;;4.93;3.13;;;16.00;99.90;;;;;;486823;243;29361;-81
2023/07/31 06:08:39;;;;;;;5.87;2.97;;;16.10;99.90;;;;;;486812;243;28802;-81
2023/07/31 06:10:40;;;;;;;7.70;3.63;;;16.10;99.90;;;;;;486778;243;28875;-81
2023/07/31 06:12:41;;;;;;;5.63;3.00;;;16.30;99.90;;;;;;486793;243;28861;-80
2023/07/31 06:14:43;;;;;;;5.13;2.90;;;16.40;99.90;;;;;;486751;243;28935;-80
2023/07/31 06:16:44;;;;;;;8.43;3.40;;;16.40;99.90;;;;;;486784;243;29342;-79
2023/07/31 06:18:45;;;;;;;5.10;3.27;;;16.40;99.90;;;;;;486782;243;29299;-80
2023/07/31 06:20:47;;;;;;;4.00;2.80;;;16.40;99.90;;;;;;486772;243;29329;-80
2023/07/31 06:22:48;;;;;;;4.70;2.60;;;16.40;99.90;;;;;;486769;243;28828;-79
2023/07/31 06:24:49;;;;;;;4.97;2.73;;;16.30;99.90;;;;;;486740;244;28808;-81
2023/07/31 06:26:50;;;;;;;13.10;3.27;;;16.20;99.90;;;;;;486822;243;28965;-81
2023/07/31 06:28:51;;;;;;;5.87;3.70;;;16.20;99.90;;;;;;493030;240;28742;-81
2023/07/31 06:30:53;;;;;;;3.40;2.60;;;16.10;99.90;;;;;;496485;239;28873;-79
2023/07/31 06:32:54;;;;;;;6.47;2.80;;;16.10;99.90;;;;;;496475;239;28763;-80
2023/07/31 06:34:55;;;;;;;3.80;2.60;;;16.10;99.90;;;;;;496524;239;28800;-79
2023/07/31 06:36:56;;;;;;;5.47;3.10;;;16.10;99.90;;;;;;496528;239;28889;-78
2023/07/31 06:38:58;;;;;;;6.00;3.03;;;16.00;99.90;;;;;;496495;239;28853;-81
2023/07/31 06:40:59;;;;;;;5.70;2.60;;;16.00;99.90;;;;;;496498;239;29336;-79
2023/07/31 06:43:06;;;;;;;5.70;3.03;;;16.00;99.90;;;;;;496482;239;29995;-79
2023/07/31 06:45:01;;;;;;;4.77;3.10;;;16.10;99.90;;;;;;496147;239;29217;-79
2023/07/31 06:47:03;;;;;;;5.23;3.10;;;16.10;99.90;;;;;;496454;239;28841;-78
2023/07/31 06:49:04;;;;;;;6.57;3.10;;;16.10;99.90;;;;;;496492;239;28763;-80
2023/07/31 06:51:05;;;;;;;8.60;3.33;;;16.20;99.90;;;;;;496407;239;28848;-80
2023/07/31 06:53:06;;;;;;;6.90;3.33;;;16.20;99.90;;;;;;496496;239;28911;-80
2023/07/31 06:55:08;;;;;;;5.37;3.17;;;16.20;99.90;;;;;;496516;239;28790;-78
2023/07/31 06:57:09;;;;;;;5.00;2.90;;;16.40;99.90;;;;;;496452;239;28911;-80
2023/07/31 06:59:10;;;;;;;5.30;2.40;;;16.40;99.90;;;;;;496465;239;28814;-81
2023/07/31 07:01:11;;;;;;;7.60;3.07;;;16.40;99.90;;;;;;496437;239;28816;-81
2023/07/31 07:03:14;;;;;;;5.93;3.20;;;16.40;99.90;;;;;;496356;239;28820;-80
2023/07/31 07:05:14;;;;;;;4.73;3.13;;;16.50;99.90;;;;;;496343;239;29292;-80
2023/07/31 07:07:15;;;;;;;10.70;3.30;;;16.50;99.90;;;;;;496496;239;29313;-80
2023/07/31 07:09:16;;;;;;;4.30;2.77;;;16.60;99.90;;;;;;496550;239;29330;-82
2023/07/31 07:11:18;;;;;;;9.43;3.57;;;16.70;99.90;;;;;;496495;239;28844;-81
2023/07/31 07:13:19;;;;;;;6.10;3.40;;;16.80;99.90;;;;;;496564;239;28913;-80
2023/07/31 07:15:20;;;;;;;5.00;3.60;;;17.00;99.90;;;;;;496584;239;28826;-82
2023/07/31 07:17:21;;;;;;;6.80;3.07;;;17.30;99.90;;;;;;496598;239;29000;-79
2023/07/31 07:19:23;;;;;;;6.10;3.00;;;17.40;99.90;;;;;;496576;239;28775;-82
2023/07/31 07:21:24;;;;;;;4.87;2.97;;;17.40;99.90;;;;;;496602;239;28901;-82
2023/07/31 07:23:26;;;;;;;5.07;2.97;;;17.40;99.90;;;;;;496575;239;28881;-79
2023/07/31 07:25:27;;;;;;;5.80;3.57;;;17.40;99.90;;;;;;496470;239;28739;-80
2023/07/31 07:27:28;;;;;;;7.33;3.10;;;17.50;99.90;;;;;;496620;239;28818;-82
2023/07/31 07:29:29;;;;;;;5.80;3.07;;;17.60;99.90;;;;;;496558;239;29373;-82
2023/07/31 07:31:30;;;;;;;3.13;2.83;;;17.70;99.90;;;;;;496622;239;29304;-82
2023/07/31 07:33:31;;;;;;;7.57;3.03;;;17.90;99.90;;;;;;496625;239;29303;-78
2023/07/31 07:35:33;;;;;;;6.07;2.93;;;17.90;99.90;;;;;;496581;239;28771;-81
2023/07/31 07:37:34;;;;;;;5.43;3.03;;;18.00;99.90;;;;;;496647;239;28949;-82
2023/07/31 07:39:35;;;;;;;4.80;2.43;;;17.90;99.90;;;;;;496646;239;28877;-82
2023/07/31 07:41:36;;;;;;;4.70;3.33;;;17.90;99.90;;;;;;496597;239;28794;-81
2023/07/31 07:43:38;;;;;;;7.90;3.00;;;17.80;99.90;;;;;;496591;239;28905;-82
2023/07/31 07:45:39;;;;;;;6.57;3.03;;;17.80;99.90;;;;;;496555;239;28791;-84
2023/07/31 07:47:40;;;;;;;5.63;2.93;;;17.80;99.90;;;;;;496681;239;28830;-82
2023/07/31 07:49:41;;;;;;;7.13;3.07;;;17.80;99.90;;;;;;496658;239;28795;-82
2023/07/31 07:51:43;;;;;;;5.67;3.10;;;18.00;99.90;;;;;;496676;239;28786;-78
2023/07/31 07:53:44;;;;;;;8.93;3.80;;;18.20;99.90;;;;;;496530;239;28934;-81
2023/07/31 07:55:45;;;;;;;8.73;3.23;;;18.40;99.90;;;;;;496452;239;29220;-81
2023/07/31 07:57:46;;;;;;;14.40;3.83;;;18.60;99.90;;;;;;496490;239;29319;-82
2023/07/31 07:59:48;;;;;;;6.00;2.90;;;18.80;99.90;;;;;;496582;239;29203;-81
2023/07/31 08:01:49;;;;;;;5.23;3.30;;;18.90;99.90;;;;;;496581;239;28834;-82
2023/07/31 08:03:50;;;;;;;7.30;3.17;;;18.80;99.90;;;;;;496630;239;28901;-82
2023/07/31 08:05:51;;;;;;;10.20;3.13;;;18.70;99.90;;;;;;496587;239;28760;-83
2023/07/31 08:07:53;;;;;;;8.40;3.57;;;18.80;99.90;;;;;;496619;239;28917;-82
2023/07/31 08:09:54;;;;;;;6.90;3.20;;;18.80;99.90;;;;;;496594;239;29299;-80
2023/07/31 08:11:57;;;;;;;7.00;3.27;;;18.90;99.90;;;;;;496601;239;28776;-81
2023/07/31 08:13:56;;;;;;;11.93;2.90;;;18.90;99.90;;;;;;496557;239;28816;-81
2023/07/31 08:15:58;;;;;;;5.83;2.83;;;19.00;99.90;;;;;;496724;239;28773;-83
2023/07/31 08:17:59;;;;;;;6.57;3.10;;;19.10;99.90;;;;;;496657;239;29297;-82
2023/07/31 08:20:00;;;;;;;13.63;3.20;;;19.10;99.90;;;;;;496732;239;29508;-81
2023/07/31 08:22:01;;;;;;;4.97;3.00;;;19.00;99.90;;;;;;496768;239;29242;-82
2023/07/31 08:24:03;;;;;;;2.90;2.47;;;19.00;99.90;;;;;;496803;239;28846;-82
2023/07/31 08:26:04;;;;;;;6.83;3.53;;;18.90;99.90;;;;;;496716;239;28792;-83
2023/07/31 08:28:05;;;;;;;4.67;2.93;;;18.90;99.90;;;;;;496674;239;28803;-82
2023/07/31 08:30:06;;;;;;;7.63;3.30;;;18.80;99.90;;;;;;496751;239;28840;-79
2023/07/31 08:32:08;;;;;;;8.27;3.00;;;18.80;99.90;;;;;;496667;239;28955;-83
2023/07/31 08:34:09;;;;;;;7.50;3.37;;;18.80;99.90;;;;;;496648;239;28920;-83
2023/07/31 08:36:10;;;;;;;5.60;3.17;;;18.80;99.90;;;;;;496668;239;28877;-83
2023/07/31 08:38:11;;;;;;;5.73;3.37;;;19.10;99.90;;;;;;496661;239;28802;-83
2023/07/31 08:40:13;;;;;;;8.13;4.10;;;19.20;99.90;;;;;;496817;239;28857;-82
2023/07/31 08:42:14;;;;;;;7.93;4.00;;;19.10;99.90;;;;;;496750;239;29356;-82
2023/07/31 08:44:15;;;;;;;4.73;3.63;;;19.10;99.90;;;;;;496737;239;29276;-83
2023/07/31 08:46:16;;;;;;;6.30;3.00;;;19.20;99.90;;;;;;496839;239;29350;-83
2023/07/31 08:48:18;;;;;;;7.07;3.17;;;19.40;99.90;;;;;;496776;239;28833;-82
2023/07/31 08:50:19;;;;;;;3.23;2.93;;;19.60;99.90;;;;;;496823;239;28877;-80
2023/07/31 08:52:20;;;;;;;5.47;3.27;;;19.70;99.90;;;;;;496816;239;28804;-83
2023/07/31 08:54:22;;;;;;;12.33;3.50;;;19.90;99.90;;;;;;496717;239;28832;-83
2023/07/31 08:56:23;;;;;;;7.63;3.67;;;19.80;99.90;;;;;;496773;239;28766;-83
2023/07/31 08:58:24;;;;;;;5.97;3.27;;;19.80;99.90;;;;;;496770;239;28872;-84
2023/07/31 09:00:25;;;;;;;5.10;3.23;;;19.70;99.90;;;;;;496808;239;28811;-82
2023/07/31 09:02:27;;;;;;;5.20;3.13;;;19.80;99.90;;;;;;496770;239;28836;-82
2023/07/31 09:04:28;;;;;;;8.53;3.37;;;19.80;99.90;;;;;;496774;239;28801;-82
2023/07/31 09:06:29;;;;;;;11.80;3.80;;;19.70;99.90;;;;;;496741;239;29203;-83
2023/07/31 09:08:30;;;;;;;6.43;3.00;;;19.50;99.90;;;;;;496804;239;29406;-82
2023/07/31 09:10:32;;;;;;;9.37;3.70;;;19.60;99.90;;;;;;496869;239;29425;-79
2023/07/31 09:12:33;;;;;;;5.03;3.37;;;19.70;99.90;;;;;;496930;239;28823;-83
2023/07/31 09:14:34;;;;;;;5.17;2.90;;;20.00;99.90;;;;;;496844;239;28827;-83
2023/07/31 09:16:35;;;;;;;7.40;3.20;;;20.00;99.90;;;;;;496818;239;28848;-83
2023/07/31 09:18:37;;;;;;;5.90;3.20;;;20.10;99.90;;;;;;496804;239;28784;-83
2023/07/31 09:20:38;;;;;;;7.00;3.47;;;20.00;99.90;;;;;;496835;239;28817;-82
2023/07/31 09:22:39;;;;;;;6.10;3.33;;;19.90;99.90;;;;;;496800;239;28809;-83
2023/07/31 09:24:40;;;;;;;6.00;3.33;;;20.00;99.90;;;;;;496815;239;28794;-82
2023/07/31 09:26:42;;;;;;;4.67;2.60;;;20.10;99.90;;;;;;496773;239;28767;-83
2023/07/31 09:28:43;;;;;;;5.07;3.03;;;20.00;99.90;;;;;;496875;239;29305;-82
2023/07/31 09:30:44;;;;;;;7.23;3.60;;;20.00;99.90;;;;;;483575;245;29337;-83
2023/07/31 09:32:45;;;;;;;5.40;3.40;;;19.90;99.90;;;;;;493491;240;29292;-82
2023/07/31 09:34:47;;;;;;;7.27;3.17;;;19.80;99.90;;;;;;496882;239;29246;-82
2023/07/31 09:36:48;;;;;;;7.63;3.50;;;19.80;99.90;;;;;;496831;239;28898;-83
2023/07/31 09:38:49;;;;;;;3.57;2.73;;;19.80;99.90;;;;;;496881;239;28859;-82
2023/07/31 09:40:50;;;;;;;11.90;3.60;;;19.80;99.90;;;;;;496885;239;28842;-81
2023/07/31 09:42:54;;;;;;;11.13;3.50;;;19.80;99.90;;;;;;496955;239;28885;-84
2023/07/31 09:44:56;;;;;;;6.93;3.10;;;19.90;99.90;;;;;;496882;239;28780;-82
2023/07/31 09:46:57;;;;;;;4.53;3.30;;;19.90;99.90;;;;;;496864;239;28846;-83
2023/07/31 09:48:58;;;;;;;6.07;3.20;;;20.00;99.90;;;;;;496890;239;28895;-82
2023/07/31 09:51:00;;;;;;;4.63;3.00;;;20.30;99.90;;;;;;496958;239;28828;-84
2023/07/31 09:53:01;;;;;;;11.33;3.77;;;20.50;99.90;;;;;;496910;239;28841;-81
2023/07/31 09:55:02;;;;;;;8.37;3.17;;;20.70;99.90;;;;;;496747;239;28790;-81
2023/07/31 09:57:03;;;;;;;5.20;3.47;;;20.80;99.90;;;;;;496743;239;28802;-82
2023/07/31 09:59:05;;;;;;;8.53;3.70;;;20.70;99.90;;;;;;496508;239;28818;-80
2023/07/31 10:01:06;;;;;;;7.63;3.40;;;20.70;99.90;;;;;;496203;239;29134;-83
2023/07/31 10:03:07;;;;;;;6.17;3.20;;;20.50;99.90;;;;;;496878;239;29272;-83
2023/07/31 10:05:08;;;;;;;7.03;3.50;;;20.50;99.90;;;;;;496810;239;29205;-84
2023/07/31 10:07:10;;;;;;;9.07;3.73;;;20.60;99.90;;;;;;496783;239;29381;-82
2023/07/31 10:09:11;;;;;;;10.37;3.97;;;20.60;99.90;;;;;;496627;239;28784;-81
2023/07/31 10:11:14;;;;;;;7.87;3.57;;;20.60;99.90;;;;;;496733;239;28777;-82
2023/07/31 10:13:13;;;;;;;13.80;4.53;;;20.80;99.90;;;;;;496725;239;28765;-82
2023/07/31 10:15:15;;;;;;;7.20;3.20;;;20.90;99.90;;;;;;496716;239;28858;-82
2023/07/31 10:17:16;;;;;;;7.63;3.37;;;20.90;99.90;;;;;;496754;239;28902;-82
2023/07/31 10:19:17;;;;;;;11.63;3.90;;;20.90;99.90;;;;;;496841;239;28870;-82
2023/07/31 10:21:18;;;;;;;5.40;4.10;;;20.80;99.90;;;;;;496760;239;28834;-82
2023/07/31 10:23:20;;;;;;;4.80;2.90;;;20.60;99.90;;;;;;496795;239;28809;-82
2023/07/31 10:25:21;;;;;;;5.10;3.23;;;20.50;99.90;;;;;;496758;239;30110;-82
2023/07/31 10:27:22;;;;;;;7.27;3.37;;;20.50;99.90;;;;;;496770;239;29301;-81
2023/07/31 10:29:24;;;;;;;7.30;3.30;;;20.70;99.90;;;;;;496690;239;29300;-82